Time;durP1;ratioP1;P1;durP2;ratioP2;P2;SDS_P1;SDS_P2;PMS_P1;PMS_P2;Temp;Humidity;BMP_temperature;BMP_pressure;BME280_temperature;BME280_humidity;BME280_pressure;Samples;Min_cycle;Max_cycle;Signal;HPM_P1;HPM_P2
2021/04/22 00:00:17;;;;;;;11.88;8.95;;;23.20;47.60;;;;;;5004703;28;20472;-83
2021/04/22 00:02:45;;;;;;;16.05;8.63;;;23.80;45.10;;;;;;5010717;28;20022;-83
2021/04/22 00:05:17;;;;;;;13.75;9.15;;;24.20;41.40;;;;;;5008348;28;20049;-82
2021/04/22 00:07:46;;;;;;;11.65;8.70;;;24.30;39.30;;;;;;5010357;28;21738;-81
2021/04/22 00:10:15;;;;;;;12.43;10.18;;;24.60;40.00;;;;;;5010967;28;20042;-82
2021/04/22 00:12:43;;;;;;;16.80;13.07;;;24.90;38.90;;;;;;5015143;28;20022;-83
2021/04/22 00:15:14;;;;;;;20.60;15.20;;;24.80;40.30;;;;;;5010045;28;20121;-81
2021/04/22 00:17:44;;;;;;;21.63;18.05;;;24.70;41.70;;;;;;5006331;28;20025;-81
2021/04/22 00:20:15;;;;;;;25.00;20.00;;;24.90;37.70;;;;;;5007113;28;20453;-86
2021/04/22 00:22:43;;;;;;;42.47;34.35;;;24.80;39.90;;;;;;5012918;28;20106;-86
2021/04/22 00:25:12;;;;;;;30.40;25.75;;;25.20;40.10;;;;;;5004221;28;20061;-86
2021/04/22 00:27:40;;;;;;;27.65;24.20;;;25.40;39.90;;;;;;5018038;28;20030;-85
2021/04/22 00:30:15;;;;;;;32.15;25.90;;;25.20;42.30;;;;;;5008857;28;20554;-82
2021/04/22 00:32:44;;;;;;;29.75;24.45;;;25.40;38.20;;;;;;5013208;28;20131;-84
2021/04/22 00:35:13;;;;;;;28.48;24.48;;;25.60;38.40;;;;;;5022347;28;20101;-87
2021/04/22 00:37:40;;;;;;;30.35;24.48;;;26.30;39.90;;;;;;5023504;28;20100;-87
2021/04/22 00:40:21;;;;;;;30.13;26.08;;;26.20;39.50;;;;;;5021906;28;20044;-88
2021/04/22 00:42:51;;;;;;;30.35;24.63;;;25.60;41.60;;;;;;5015622;28;20077;-86
2021/04/22 00:45:19;;;;;;;31.75;25.67;;;25.90;39.70;;;;;;5016460;28;20048;-82
2021/04/22 00:47:48;;;;;;;32.88;26.98;;;26.10;37.90;;;;;;5016217;28;20496;-83
2021/04/22 00:50:21;;;;;;;32.45;25.63;;;25.50;38.90;;;;;;5025822;28;20030;-83
2021/04/22 00:52:52;;;;;;;29.90;25.30;;;25.80;42.50;;;;;;5031358;28;20097;-85
2021/04/22 00:55:21;;;;;;;36.03;28.70;;;26.10;41.30;;;;;;5018472;28;20115;-82
2021/04/22 00:57:52;;;;;;;35.25;25.90;;;26.40;42.10;;;;;;5018748;28;20025;-82
2021/04/22 01:00:24;;;;;;;33.03;27.00;;;26.80;39.80;;;;;;5019550;28;20041;-80
2021/04/22 01:02:52;;;;;;;34.35;28.48;;;26.50;39.40;;;;;;5024857;28;20036;-84
2021/04/22 01:05:23;;;;;;;40.40;33.42;;;26.50;37.70;;;;;;5009496;28;20025;-82
2021/04/22 01:07:54;;;;;;;37.63;32.65;;;26.80;37.20;;;;;;5011717;28;20105;-84
2021/04/22 01:10:22;;;;;;;44.90;33.38;;;27.20;38.10;;;;;;5011629;28;20041;-85
2021/04/22 01:12:53;;;;;;;39.53;31.88;;;27.20;36.10;;;;;;5012842;28;20041;-85
2021/04/22 01:15:23;;;;;;;42.38;34.92;;;27.40;36.80;;;;;;5010864;28;20042;-82
2021/04/22 01:17:51;;;;;;;45.10;35.67;;;27.60;35.80;;;;;;5009433;28;20034;-84
2021/04/22 01:20:22;;;;;;;41.88;33.58;;;27.80;37.00;;;;;;5012209;28;20036;-85
2021/04/22 01:22:52;;;;;;;40.72;34.60;;;28.20;35.80;;;;;;5011765;28;20045;-84
2021/04/22 01:25:32;;;;;;;37.38;33.30;;;28.00;34.60;;;;;;5009233;28;20027;-84
2021/04/22 01:28:01;;;;;;;39.72;33.03;;;28.00;34.20;;;;;;5014683;28;20068;-83
2021/04/22 01:30:35;;;;;;;34.72;30.67;;;27.90;33.80;;;;;;5017188;28;20033;-84
2021/04/22 01:33:07;;;;;;;31.25;26.88;;;28.10;33.90;;;;;;5011237;28;20026;-82
2021/04/22 01:35:38;;;;;;;27.95;21.40;;;28.10;34.30;;;;;;5012389;28;20029;-82
2021/04/22 01:38:09;;;;;;;31.58;25.55;;;27.90;29.10;;;;;;5012093;28;20049;-82
2021/04/22 01:40:37;;;;;;;28.63;23.42;;;27.20;28.90;;;;;;5011606;28;20740;-83
2021/04/22 01:43:05;;;;;;;32.17;25.35;;;26.00;30.10;;;;;;5011378;28;20055;-80
2021/04/22 01:45:35;;;;;;;38.20;29.30;;;25.60;33.00;;;;;;5012037;28;20100;-83
2021/04/22 01:48:05;;;;;;;33.08;26.77;;;25.40;31.90;;;;;;5006390;28;20065;-83
2021/04/22 01:50:36;;;;;;;39.85;31.95;;;25.20;32.60;;;;;;5005807;28;20543;-82
2021/04/22 01:53:05;;;;;;;36.08;29.88;;;24.70;30.90;;;;;;5012856;28;20492;-84
2021/04/22 01:55:39;;;;;;;43.28;34.53;;;25.10;32.20;;;;;;5005154;28;20053;-80
2021/04/22 01:58:10;;;;;;;33.08;28.05;;;25.10;30.50;;;;;;5010500;28;20127;-80
2021/04/22 02:00:49;;;;;;;36.85;27.48;;;25.10;31.70;;;;;;5010426;28;20030;-84
2021/04/22 02:03:16;;;;;;;30.67;24.35;;;25.40;30.90;;;;;;5012028;28;20029;-80
2021/04/22 02:05:44;;;;;;;27.25;21.25;;;25.30;30.30;;;;;;5008334;28;20353;-82
2021/04/22 02:08:14;;;;;;;20.17;17.75;;;25.10;38.20;;;;;;5011198;28;20038;-83
2021/04/22 02:10:43;;;;;;;26.63;20.63;;;26.00;34.60;;;;;;5008954;28;20409;-83
2021/04/22 02:13:12;;;;;;;27.13;19.35;;;26.30;32.80;;;;;;5008515;28;20044;-84
2021/04/22 02:15:40;;;;;;;21.10;17.77;;;26.80;32.90;;;;;;5005567;28;20050;-83
2021/04/22 02:18:08;;;;;;;25.98;19.63;;;27.20;32.60;;;;;;5006186;28;20036;-82
2021/04/22 02:20:36;;;;;;;22.55;18.52;;;27.50;33.00;;;;;;5005745;28;20520;-80
2021/04/22 02:23:05;;;;;;;24.02;18.50;;;27.60;35.00;;;;;;5007749;28;20195;-84
2021/04/22 02:25:34;;;;;;;20.40;14.35;;;28.00;33.10;;;;;;5009246;28;20029;-85
2021/04/22 02:28:03;;;;;;;20.30;14.82;;;27.40;31.90;;;;;;5008883;28;20056;-84
2021/04/22 02:30:35;;;;;;;20.83;16.55;;;27.70;31.80;;;;;;5006575;28;20042;-82
2021/04/22 02:33:07;;;;;;;18.02;15.25;;;27.90;30.70;;;;;;5009397;28;20551;-81
2021/04/22 02:35:41;;;;;;;21.67;17.77;;;27.50;31.20;;;;;;5006617;28;20092;-83
2021/04/22 02:38:11;;;;;;;21.42;17.50;;;27.50;30.20;;;;;;5010416;28;20025;-82
2021/04/22 02:40:45;;;;;;;21.73;14.77;;;27.60;31.60;;;;;;5006038;28;20080;-82
2021/04/22 02:43:14;;;;;;;16.25;12.23;;;27.40;31.50;;;;;;5009409;28;20025;-80
2021/04/22 02:45:44;;;;;;;16.17;12.55;;;27.10;30.30;;;;;;5006552;28;20081;-82
2021/04/22 02:48:12;;;;;;;14.77;11.48;;;27.70;31.60;;;;;;5011772;28;20193;-83
2021/04/22 02:50:48;;;;;;;14.55;10.65;;;27.50;32.20;;;;;;5007955;28;20362;-83
2021/04/22 02:53:16;;;;;;;;;;;27.90;30.20;;;;;;5013987;28;20358;-83
2021/04/22 02:55:45;;;;;;;9.80;6.90;;;27.60;28.50;;;;;;5009045;28;20301;-79
2021/04/22 02:58:14;;;;;;;8.68;6.20;;;27.60;33.00;;;;;;5009854;28;20034;-82
2021/04/22 03:00:43;;;;;;;6.15;4.32;;;27.90;33.10;;;;;;5005436;28;20038;-83
2021/04/22 03:03:14;;;;;;;10.85;4.97;;;27.40;30.00;;;;;;5005506;28;20029;-84
2021/04/22 03:05:48;;;;;;;7.78;4.68;;;26.40;29.90;;;;;;5002918;28;20038;-89
2021/04/22 03:08:15;;;;;;;5.13;4.05;;;26.10;31.90;;;;;;5003806;28;20138;-86
2021/04/22 03:10:43;;;;;;;6.28;3.75;;;26.00;34.20;;;;;;5007087;28;20132;-86
2021/04/22 03:13:11;;;;;;;7.15;4.47;;;26.10;31.90;;;;;;5008087;28;20113;-84
2021/04/22 03:15:39;;;;;;;8.40;2.65;;;26.60;32.70;;;;;;5004706;28;20042;-87
2021/04/22 03:18:07;;;;;;;7.22;1.77;;;27.20;34.40;;;;;;5009683;28;20034;-86
2021/04/22 03:20:34;;;;;;;6.22;2.20;;;27.10;30.40;;;;;;5007394;28;20065;-85
2021/04/22 03:23:03;;;;;;;7.13;1.65;;;26.60;32.80;;;;;;5004018;28;20519;-85
2021/04/22 03:25:30;;;;;;;5.20;1.77;;;26.20;34.10;;;;;;5005093;28;20025;-84
2021/04/22 03:27:58;;;;;;;6.25;1.70;;;25.80;34.90;;;;;;5003438;28;20041;-84
2021/04/22 03:30:28;;;;;;;10.27;1.50;;;25.20;33.70;;;;;;5012247;28;20112;-87
2021/04/22 03:32:56;;;;;;;5.30;1.77;;;25.80;31.60;;;;;;5016331;28;20121;-84
2021/04/22 03:35:25;;;;;;;5.00;1.55;;;26.40;32.30;;;;;;5011649;28;20029;-86
2021/04/22 03:37:56;;;;;;;8.07;1.70;;;26.80;33.70;;;;;;5008503;28;20488;-84
2021/04/22 03:40:25;;;;;;;7.13;2.50;;;26.90;31.70;;;;;;5018892;28;20580;-85
2021/04/22 03:42:58;;;;;;;5.95;3.60;;;26.40;29.60;;;;;;5022952;28;20034;-81
2021/04/22 03:45:26;;;;;;;12.30;7.70;;;26.20;32.00;;;;;;5009608;28;20035;-83
2021/04/22 03:47:54;;;;;;;12.93;10.15;;;26.10;32.90;;;;;;5007903;28;20188;-86
2021/04/22 03:50:21;;;;;;;17.98;12.38;;;26.00;32.60;;;;;;5014822;28;20037;-82
2021/04/22 03:52:49;;;;;;;16.98;10.43;;;25.80;35.60;;;;;;5020398;28;20030;-87
2021/04/22 03:55:18;;;;;;;8.50;4.70;;;25.80;34.30;;;;;;5019617;28;20022;-84
2021/04/22 03:57:47;;;;;;;2.80;0.47;;;25.90;32.80;;;;;;5011663;28;20080;-85
2021/04/22 04:00:17;;;;;;;1.55;0.50;;;25.90;33.70;;;;;;5011356;28;20372;-86
2021/04/22 04:02:45;;;;;;;2.72;0.55;;;25.80;34.60;;;;;;5012997;28;20022;-82
2021/04/22 04:05:13;;;;;;;1.88;0.65;;;25.90;33.40;;;;;;5006230;28;20472;-82
2021/04/22 04:07:41;;;;;;;3.78;0.75;;;26.00;34.10;;;;;;5005118;28;20065;-84
2021/04/22 04:10:10;;;;;;;3.20;0.45;;;25.70;32.90;;;;;;5005782;28;20515;-83
2021/04/22 04:12:40;;;;;;;3.30;0.90;;;25.60;34.00;;;;;;5003099;28;20037;-84
2021/04/22 04:15:09;;;;;;;1.40;0.50;;;25.30;34.00;;;;;;5010986;28;20115;-84
2021/04/22 04:17:39;;;;;;;4.15;0.70;;;25.40;34.30;;;;;;5012866;28;20041;-81
2021/04/22 04:20:11;;;;;;;3.05;0.60;;;25.50;34.90;;;;;;5006295;28;20022;-81
2021/04/22 04:22:40;;;;;;;2.72;0.95;;;25.50;33.70;;;;;;5013095;28;20418;-84
2021/04/22 04:25:09;;;;;;;4.40;0.70;;;25.30;33.30;;;;;;5007328;28;20033;-80
2021/04/22 04:27:38;;;;;;;4.28;0.90;;;25.10;33.80;;;;;;5005448;28;20034;-83
2021/04/22 04:30:09;;;;;;;4.28;1.05;;;25.00;33.30;;;;;;5011761;28;20053;-86
2021/04/22 04:32:38;;;;;;;1.63;0.52;;;24.60;33.90;;;;;;5011982;28;20053;-85
2021/04/22 04:35:06;;;;;;;3.70;0.60;;;24.30;34.80;;;;;;5008447;28;20112;-83
2021/04/22 04:37:34;;;;;;;1.75;0.50;;;24.20;35.30;;;;;;5009327;28;20052;-82
2021/04/22 04:40:03;;;;;;;3.47;0.55;;;24.10;35.50;;;;;;5009118;28;20492;-83
2021/04/22 04:42:30;;;;;;;1.98;0.60;;;23.90;34.10;;;;;;5008435;28;20022;-83
2021/04/22 04:44:58;;;;;;;3.58;0.35;;;23.60;34.80;;;;;;5009735;28;20038;-83
2021/04/22 04:47:25;;;;;;;4.25;0.52;;;23.50;34.80;;;;;;5006304;28;20033;-81
2021/04/22 04:49:52;;;;;;;4.40;0.50;;;23.20;35.10;;;;;;5010111;28;20038;-83
2021/04/22 04:52:20;;;;;;;2.90;0.50;;;23.10;35.30;;;;;;5013009;28;20029;-83
2021/04/22 04:54:49;;;;;;;3.38;0.55;;;22.60;36.00;;;;;;5015864;28;20038;-83
2021/04/22 04:57:17;;;;;;;4.28;0.68;;;22.50;36.60;;;;;;5013182;28;20380;-84
2021/04/22 04:59:44;;;;;;;1.42;0.70;;;22.40;37.30;;;;;;5012396;28;20389;-86
2021/04/22 05:02:11;;;;;;;1.55;0.40;;;22.50;37.30;;;;;;5008864;28;20429;-83
2021/04/22 05:04:39;;;;;;;3.58;0.43;;;22.40;37.30;;;;;;5014492;28;20451;-81
2021/04/22 05:07:06;;;;;;;2.03;0.43;;;22.30;36.80;;;;;;5021063;28;20042;-82
2021/04/22 05:09:37;;;;;;;3.35;0.77;;;22.10;37.70;;;;;;5016468;28;20112;-83
2021/04/22 05:12:09;;;;;;;3.67;0.55;;;22.10;37.50;;;;;;5011652;28;20048;-83
2021/04/22 05:14:36;;;;;;;5.82;0.50;;;21.90;37.60;;;;;;5014358;28;20412;-83
2021/04/22 05:17:05;;;;;;;7.05;0.90;;;21.90;37.80;;;;;;5013515;28;20041;-84
2021/04/22 05:19:32;;;;;;;6.65;0.88;;;21.80;38.60;;;;;;5008615;28;20108;-84
2021/04/22 05:22:00;;;;;;;1.45;0.50;;;21.80;38.00;;;;;;5013493;28;20038;-83
2021/04/22 05:24:27;;;;;;;2.08;0.57;;;21.70;37.90;;;;;;5013356;28;20026;-85
2021/04/22 05:26:54;;;;;;;1.25;0.40;;;21.60;37.60;;;;;;5009735;28;20069;-86
2021/04/22 05:29:24;;;;;;;1.77;0.30;;;21.50;37.20;;;;;;5011011;28;20030;-86
2021/04/22 05:31:52;;;;;;;2.97;0.50;;;21.30;37.90;;;;;;5030495;28;20057;-84
2021/04/22 05:34:20;;;;;;;3.33;1.75;;;21.30;37.30;;;;;;5015163;28;20026;-86
2021/04/22 05:36:48;;;;;;;2.45;0.50;;;21.20;37.20;;;;;;5011024;28;20022;-87
2021/04/22 05:39:20;;;;;;;1.95;0.40;;;21.40;37.50;;;;;;5013266;28;20119;-86
2021/04/22 05:41:47;;;;;;;2.75;0.52;;;21.30;37.80;;;;;;5015107;28;20275;-87
2021/04/22 05:44:15;;;;;;;1.02;0.32;;;21.40;37.90;;;;;;5015834;28;20033;-84
2021/04/22 05:46:43;;;;;;;2.50;0.57;;;21.40;37.80;;;;;;5006453;28;20025;-85
2021/04/22 05:49:11;;;;;;;2.05;0.60;;;21.50;37.00;;;;;;5007733;28;20029;-83
2021/04/22 05:51:40;;;;;;;5.35;0.93;;;21.50;37.90;;;;;;4998605;28;20500;-83
2021/04/22 05:54:08;;;;;;;3.13;0.75;;;21.40;38.00;;;;;;5006266;28;20025;-83
2021/04/22 05:56:36;;;;;;;3.17;0.43;;;21.40;38.00;;;;;;5014585;28;20334;-83
2021/04/22 05:59:05;;;;;;;4.70;0.55;;;21.40;38.10;;;;;;5011736;28;20041;-81
2021/04/22 06:01:33;;;;;;;4.15;0.47;;;21.20;37.70;;;;;;5022797;28;20088;-84
2021/04/22 06:04:00;;;;;;;8.30;1.10;;;21.10;39.00;;;;;;5010742;28;20056;-82
2021/04/22 06:06:29;;;;;;;3.58;0.80;;;21.00;39.20;;;;;;5010656;28;20030;-85
2021/04/22 06:08:56;;;;;;;5.95;0.77;;;20.90;38.50;;;;;;5014390;28;20111;-81
2021/04/22 06:11:25;;;;;;;2.33;0.47;;;20.90;39.20;;;;;;5016157;28;20117;-84
2021/04/22 06:13:54;;;;;;;5.30;0.60;;;20.90;38.50;;;;;;5014153;28;20515;-87
2021/04/22 06:16:22;;;;;;;2.38;0.82;;;21.00;38.60;;;;;;5011910;28;20057;-85
2021/04/22 06:18:51;;;;;;;3.75;0.40;;;21.00;39.10;;;;;;5016429;28;20049;-85
2021/04/22 06:21:18;;;;;;;5.75;0.52;;;21.00;38.70;;;;;;5014465;28;20018;-84
2021/04/22 06:23:47;;;;;;;3.00;0.38;;;20.90;39.20;;;;;;5021985;28;20029;-83
2021/04/22 06:26:15;;;;;;;1.45;0.40;;;20.80;39.20;;;;;;5032159;28;20391;-86
2021/04/22 06:28:42;;;;;;;3.00;0.55;;;20.60;40.60;;;;;;5002558;28;20041;-83
2021/04/22 06:31:13;;;;;;;6.70;0.95;;;20.50;40.00;;;;;;5009143;28;20034;-83
2021/04/22 06:33:41;;;;;;;6.70;0.80;;;20.30;40.10;;;;;;5011511;28;20033;-84
2021/04/22 06:36:09;;;;;;;5.45;0.57;;;20.10;40.20;;;;;;5007715;28;20034;-84
2021/04/22 06:38:37;;;;;;;1.80;0.30;;;19.80;40.50;;;;;;5006772;28;20556;-83
2021/04/22 06:41:04;;;;;;;5.32;0.43;;;19.50;40.70;;;;;;5007501;28;20467;-86
2021/04/22 06:43:32;;;;;;;2.85;0.75;;;19.30;41.10;;;;;;5015169;28;20014;-88
2021/04/22 06:46:00;;;;;;;2.28;0.45;;;19.30;41.40;;;;;;5012214;28;20038;-86
2021/04/22 06:48:27;;;;;;;3.40;0.63;;;19.10;40.80;;;;;;5020958;28;20053;-85
2021/04/22 06:50:55;;;;;;;6.40;0.52;;;18.90;41.10;;;;;;5009274;28;20018;-83
2021/04/22 06:53:24;;;;;;;1.00;0.32;;;18.80;41.60;;;;;;5003183;28;20054;-84
2021/04/22 06:55:52;;;;;;;3.55;0.47;;;18.70;41.50;;;;;;5008974;28;20385;-85
2021/04/22 06:58:19;;;;;;;3.45;0.52;;;18.60;41.90;;;;;;5011206;28;20034;-87
2021/04/22 07:00:47;;;;;;;4.28;0.60;;;18.50;42.60;;;;;;5014169;28;20117;-84
2021/04/22 07:03:14;;;;;;;2.25;0.40;;;18.40;43.10;;;;;;5012108;28;20084;-83
2021/04/22 07:05:44;;;;;;;3.10;0.32;;;18.30;43.30;;;;;;5010841;28;20048;-82
2021/04/22 07:08:12;;;;;;;3.47;0.40;;;18.20;43.50;;;;;;5013134;28;20353;-83
2021/04/22 07:10:41;;;;;;;4.30;0.60;;;18.00;44.10;;;;;;5017572;28;20025;-83
2021/04/22 07:13:08;;;;;;;2.17;0.45;;;17.90;44.30;;;;;;5016915;28;20034;-84
2021/04/22 07:15:36;;;;;;;4.00;0.40;;;17.80;44.70;;;;;;5016178;28;20034;-83
2021/04/22 07:18:05;;;;;;;3.17;0.60;;;17.60;44.40;;;;;;5016066;28;20708;-84
2021/04/22 07:20:33;;;;;;;3.95;0.55;;;17.50;45.10;;;;;;5011874;28;20053;-82
2021/04/22 07:23:01;;;;;;;4.28;1.02;;;17.40;44.90;;;;;;5010421;28;20034;-82
2021/04/22 07:25:32;;;;;;;4.45;1.75;;;17.20;45.30;;;;;;5012253;28;20229;-85
2021/04/22 07:28:04;;;;;;;2.78;0.63;;;17.10;45.70;;;;;;5010109;28;20464;-84
2021/04/22 07:30:33;;;;;;;1.02;0.25;;;17.00;46.30;;;;;;5013851;28;20041;-83
2021/04/22 07:33:01;;;;;;;1.63;0.30;;;16.90;46.60;;;;;;5010539;28;20025;-82
2021/04/22 07:35:28;;;;;;;4.70;0.70;;;16.80;48.10;;;;;;5011019;28;20451;-82
2021/04/22 07:37:56;;;;;;;1.80;0.40;;;16.70;48.70;;;;;;5010586;28;20030;-83
2021/04/22 07:40:26;;;;;;;2.38;0.45;;;16.70;49.70;;;;;;5010294;28;20076;-84
2021/04/22 07:42:54;;;;;;;2.90;1.02;;;16.60;50.90;;;;;;5012081;28;20752;-85
2021/04/22 07:45:34;;;;;;;3.33;0.30;;;16.60;50.10;;;;;;5013860;28;20037;-82
2021/04/22 07:48:03;;;;;;;3.08;0.50;;;16.40;48.70;;;;;;5005658;28;20061;-80
2021/04/22 07:50:31;;;;;;;5.13;0.50;;;16.40;49.90;;;;;;5009223;28;20086;-81
2021/04/22 07:52:59;;;;;;;2.67;0.55;;;16.30;49.50;;;;;;5010756;28;20030;-81
2021/04/22 07:55:32;;;;;;;6.10;1.08;;;16.30;49.90;;;;;;5010865;28;20034;-81
2021/04/22 07:58:01;;;;;;;7.10;1.38;;;16.30;49.80;;;;;;5008255;28;20034;-80
2021/04/22 08:00:31;;;;;;;1.65;0.57;;;16.10;49.40;;;;;;5010345;28;20057;-84
2021/04/22 08:02:59;;;;;;;3.10;0.40;;;16.00;49.90;;;;;;5012844;28;20040;-84
2021/04/22 08:05:31;;;;;;;4.05;0.38;;;16.00;50.70;;;;;;5011154;28;20105;-82
2021/04/22 08:07:59;;;;;;;1.10;0.40;;;15.90;49.70;;;;;;5013303;28;20100;-83
2021/04/22 08:10:29;;;;;;;1.45;0.50;;;15.90;49.90;;;;;;5011237;28;20054;-84
2021/04/22 08:12:59;;;;;;;1.55;0.40;;;15.80;49.70;;;;;;5015346;28;20024;-84
2021/04/22 08:15:27;;;;;;;1.77;0.57;;;15.70;49.30;;;;;;5015622;28;20174;-82
2021/04/22 08:17:54;;;;;;;1.15;0.30;;;15.70;49.20;;;;;;5006111;28;20038;-81
2021/04/22 08:20:25;;;;;;;1.67;0.70;;;15.70;49.80;;;;;;5014808;28;20337;-83
2021/04/22 08:22:54;;;;;;;2.90;0.70;;;15.60;49.20;;;;;;5009997;28;20026;-82
2021/04/22 08:25:27;;;;;;;1.00;0.57;;;15.70;49.80;;;;;;5009395;28;20026;-83
2021/04/22 08:27:57;;;;;;;2.42;0.65;;;15.60;50.30;;;;;;5015147;28;20049;-82
2021/04/22 08:30:33;;;;;;;2.60;0.40;;;15.50;49.40;;;;;;5014953;28;20104;-84
2021/04/22 08:33:01;;;;;;;3.63;0.35;;;15.50;50.00;;;;;;5012083;28;20440;-82
2021/04/22 08:35:29;;;;;;;0.75;0.20;;;15.50;50.10;;;;;;5014361;28;20495;-83
2021/04/22 08:37:57;;;;;;;3.63;0.70;;;15.40;49.80;;;;;;5015427;28;20046;-83
2021/04/22 08:40:26;;;;;;;1.65;0.40;;;15.40;50.00;;;;;;5013885;28;20052;-83
2021/04/22 08:42:53;;;;;;;2.25;0.90;;;15.40;49.80;;;;;;5011538;28;20033;-82
2021/04/22 08:45:22;;;;;;;3.60;0.40;;;15.30;50.30;;;;;;5005275;28;20399;-81
2021/04/22 08:47:51;;;;;;;1.92;0.70;;;15.30;50.40;;;;;;5005751;28;20038;-85
2021/04/22 08:50:25;;;;;;;3.13;0.80;;;15.30;50.20;;;;;;5019818;28;20026;-82
2021/04/22 08:52:57;;;;;;;5.03;0.82;;;15.30;50.40;;;;;;5022359;28;20018;-83
2021/04/22 08:55:28;;;;;;;3.28;0.55;;;15.20;50.50;;;;;;5018988;28;20024;-82
2021/04/22 08:57:58;;;;;;;2.20;0.60;;;15.30;50.40;;;;;;5013255;28;20473;-81
2021/04/22 09:00:29;;;;;;;1.60;0.50;;;15.20;51.00;;;;;;5014193;28;20500;-84
2021/04/22 09:02:57;;;;;;;2.22;0.80;;;15.10;50.90;;;;;;5015509;28;20034;-83
2021/04/22 09:05:27;;;;;;;2.05;0.77;;;15.00;51.30;;;;;;5014445;28;20065;-83
2021/04/22 09:08:02;;;;;;;0.80;0.50;;;14.90;51.20;;;;;;5016994;28;20038;-82
2021/04/22 09:10:31;;;;;;;2.00;0.70;;;14.80;51.80;;;;;;5029345;28;20025;-83
2021/04/22 09:13:03;;;;;;;5.10;0.68;;;14.80;52.00;;;;;;5030121;28;20108;-83
2021/04/22 09:15:33;;;;;;;2.15;0.60;;;14.70;52.00;;;;;;5018198;28;20054;-84
2021/04/22 09:18:12;;;;;;;1.60;0.80;;;14.70;52.10;;;;;;5016642;28;20026;-83
2021/04/22 09:20:43;;;;;;;1.20;0.47;;;14.70;52.80;;;;;;5013512;28;20385;-82
2021/04/22 09:23:29;;;;;;;1.30;0.60;;;14.70;52.30;;;;;;5016934;28;20018;-82
2021/04/22 09:26:03;;;;;;;1.00;0.40;;;14.60;52.70;;;;;;5015282;28;20041;-82
2021/04/22 09:28:43;;;;;;;1.73;0.43;;;14.70;52.30;;;;;;5012470;28;20045;-82
2021/04/22 09:31:12;;;;;;;2.08;0.60;;;14.70;52.30;;;;;;5016390;28;20094;-82
2021/04/22 09:33:41;;;;;;;2.05;0.60;;;14.70;52.30;;;;;;5018468;28;20030;-82
2021/04/22 09:36:14;;;;;;;1.38;0.80;;;14.60;53.20;;;;;;5013429;28;20491;-83
2021/04/22 09:38:53;;;;;;;1.65;0.52;;;14.60;52.90;;;;;;5015412;28;20033;-83
2021/04/22 09:41:23;;;;;;;1.27;0.60;;;14.50;52.90;;;;;;5019897;28;20026;-83
2021/04/22 09:44:02;;;;;;;2.92;0.60;;;14.50;53.30;;;;;;5019830;28;20030;-84
2021/04/22 09:46:31;;;;;;;3.78;0.88;;;14.40;53.50;;;;;;5024913;28;20026;-83
2021/04/22 09:49:07;;;;;;;1.13;0.50;;;14.40;54.30;;;;;;5019810;28;20065;-81
2021/04/22 09:51:34;;;;;;;3.00;0.60;;;14.30;54.80;;;;;;5014774;28;20498;-82
2021/04/22 09:54:14;;;;;;;1.92;0.52;;;14.30;53.70;;;;;;5030731;28;20302;-81
2021/04/22 09:56:48;;;;;;;1.88;0.50;;;14.20;54.00;;;;;;5015260;28;20018;-82
2021/04/22 09:59:18;;;;;;;2.25;0.50;;;14.30;54.40;;;;;;5019488;28;20087;-83
2021/04/22 10:02:01;;;;;;;1.75;0.75;;;14.20;54.20;;;;;;5014427;28;20399;-82
2021/04/22 10:04:36;;;;;;;2.35;0.50;;;14.20;54.30;;;;;;5010692;28;20025;-82
2021/04/22 10:07:05;;;;;;;4.50;0.90;;;14.20;55.10;;;;;;5011966;28;20026;-83
2021/04/22 10:09:39;;;;;;;3.05;0.90;;;14.20;54.40;;;;;;5014823;28;20496;-82
2021/04/22 10:12:10;;;;;;;2.33;1.20;;;14.10;55.40;;;;;;5013130;28;20393;-83
2021/04/22 10:14:38;;;;;;;3.83;1.55;;;13.90;56.00;;;;;;5011864;28;20042;-83
2021/04/22 10:17:20;;;;;;;6.97;1.45;;;13.70;56.80;;;;;;5016023;28;20018;-83
2021/04/22 10:20:01;;;;;;;3.88;2.13;;;13.60;59.10;;;;;;5010853;28;20376;-81
2021/04/22 10:22:44;;;;;;;4.03;2.03;;;13.60;60.40;;;;;;5013221;28;20065;-84
2021/04/22 10:25:21;;;;;;;5.22;2.53;;;13.40;60.70;;;;;;5016735;28;20026;-84
2021/04/22 10:27:49;;;;;;;11.32;4.90;;;13.40;61.00;;;;;;5016297;28;20037;-84
2021/04/22 10:30:21;;;;;;;8.55;3.53;;;13.20;60.00;;;;;;5010637;28;20033;-85
2021/04/22 10:32:50;;;;;;;6.32;3.47;;;13.10;60.10;;;;;;5010425;28;20029;-83
2021/04/22 10:35:21;;;;;;;8.35;3.90;;;13.10;61.30;;;;;;5009258;28;20029;-83
2021/04/22 10:37:51;;;;;;;12.43;5.10;;;12.90;60.70;;;;;;5011578;28;20108;-84
2021/04/22 10:40:20;;;;;;;8.88;4.50;;;12.80;61.30;;;;;;5012528;28;20025;-83
2021/04/22 10:42:49;;;;;;;5.80;3.92;;;12.80;63.70;;;;;;5009886;28;20093;-84
2021/04/22 10:45:18;;;;;;;6.38;4.07;;;12.70;64.60;;;;;;5011619;28;20105;-83
2021/04/22 10:47:47;;;;;;;6.82;4.40;;;12.70;65.10;;;;;;5008827;28;20473;-82
2021/04/22 10:50:30;;;;;;;7.82;4.18;;;12.70;65.70;;;;;;5015189;28;20046;-84
2021/04/22 10:53:00;;;;;;;7.47;4.50;;;12.60;64.40;;;;;;5032918;28;20080;-83
2021/04/22 10:55:31;;;;;;;6.35;3.63;;;12.70;64.10;;;;;;5009436;28;20038;-84
2021/04/22 10:58:12;;;;;;;5.95;3.85;;;12.70;63.60;;;;;;5005983;28;20101;-82
2021/04/22 11:00:50;;;;;;;8.18;4.07;;;12.60;67.50;;;;;;5005578;28;20084;-79
2021/04/22 11:03:28;;;;;;;7.50;3.92;;;12.70;64.60;;;;;;5007390;28;20439;-78
2021/04/22 11:06:09;;;;;;;8.73;4.97;;;12.70;65.40;;;;;;5007701;28;22311;-79
2021/04/22 11:08:42;;;;;;;7.78;3.67;;;12.60;65.70;;;;;;5008351;28;20044;-80
2021/04/22 11:11:28;;;;;;;5.30;3.47;;;12.60;65.80;;;;;;5008521;28;20038;-79
2021/04/22 11:14:09;;;;;;;7.88;4.25;;;12.40;65.60;;;;;;5005303;28;20022;-81
2021/04/22 11:16:40;;;;;;;9.43;3.92;;;12.40;66.90;;;;;;5003755;28;20129;-84
2021/04/22 11:19:18;;;;;;;9.48;4.00;;;12.40;67.90;;;;;;5009764;28;20051;-84
2021/04/22 11:22:06;;;;;;;6.45;3.80;;;12.30;67.80;;;;;;5005957;28;20381;-79
2021/04/22 11:24:41;;;;;;;10.75;4.68;;;12.00;68.50;;;;;;5021091;28;20049;-80
2021/04/22 11:27:14;;;;;;;7.93;4.70;;;11.90;70.40;;;;;;5004372;28;20416;-83
2021/04/22 11:29:59;;;;;;;8.52;4.45;;;11.80;71.40;;;;;;5011694;28;20165;-82
2021/04/22 11:32:42;;;;;;;11.18;5.22;;;11.90;71.30;;;;;;5008332;28;20030;-82
2021/04/22 11:35:12;;;;;;;9.80;4.68;;;11.70;70.50;;;;;;4989189;28;20033;-81
2021/04/22 11:37:43;;;;;;;12.02;5.88;;;11.70;72.00;;;;;;5004302;28;20022;-81
2021/04/22 11:40:25;;;;;;;12.88;5.18;;;11.60;71.50;;;;;;5009331;28;20030;-81
2021/04/22 11:42:56;;;;;;;10.13;5.45;;;11.50;71.60;;;;;;5005135;28;20117;-80
2021/04/22 11:45:30;;;;;;;9.73;4.10;;;11.40;71.90;;;;;;5012360;28;20100;-83
2021/04/22 11:48:00;;;;;;;7.95;4.22;;;11.50;73.00;;;;;;5009151;28;20326;-82
2021/04/22 11:50:49;;;;;;;8.82;4.70;;;11.60;70.90;;;;;;5005080;28;20029;-80
2021/04/22 11:53:20;;;;;;;5.93;3.38;;;11.60;70.50;;;;;;5010450;28;20125;-81
2021/04/22 11:55:50;;;;;;;8.35;3.78;;;11.60;71.00;;;;;;5008644;28;20045;-79
2021/04/22 11:58:24;;;;;;;6.22;3.63;;;11.60;71.30;;;;;;5010772;28;20372;-83
2021/04/22 12:01:11;;;;;;;8.88;3.83;;;11.50;71.20;;;;;;5011749;28;20388;-81
2021/04/22 12:03:41;;;;;;;9.80;5.15;;;11.60;72.10;;;;;;5013118;28;20448;-81
2021/04/22 12:06:13;;;;;;;10.30;4.20;;;11.40;71.90;;;;;;5006897;28;20250;-82
2021/04/22 12:08:46;;;;;;;9.05;5.30;;;11.30;74.10;;;;;;5011179;28;20133;-80
2021/04/22 12:11:21;;;;;;;5.95;4.13;;;11.20;73.40;;;;;;5011685;28;20067;-82
2021/04/22 12:13:49;;;;;;;9.25;4.38;;;11.10;74.90;;;;;;5013326;28;20026;-78
2021/04/22 12:16:17;;;;;;;9.10;4.13;;;11.00;75.20;;;;;;5014714;28;20045;-80
2021/04/22 12:18:47;;;;;;;10.98;4.22;;;11.10;75.80;;;;;;5009875;28;20056;-79
2021/04/22 12:21:18;;;;;;;7.07;4.25;;;11.00;75.90;;;;;;5006742;28;20038;-82
2021/04/22 12:23:46;;;;;;;8.80;3.97;;;11.00;75.40;;;;;;5010329;28;20037;-80
2021/04/22 12:26:17;;;;;;;7.22;3.63;;;11.10;75.20;;;;;;5013410;28;20040;-83
2021/04/22 12:29:01;;;;;;;10.65;4.13;;;11.10;75.20;;;;;;5013766;28;20104;-79
2021/04/22 12:31:32;;;;;;;8.18;3.83;;;11.10;74.90;;;;;;5013491;28;20128;-79
2021/04/22 12:34:14;;;;;;;7.75;4.47;;;11.10;74.70;;;;;;5012033;28;20026;-79
2021/04/22 12:37:04;;;;;;;11.52;3.88;;;11.10;75.50;;;;;;5012614;28;20021;-81
2021/04/22 12:39:34;;;;;;;10.85;4.53;;;11.00;75.20;;;;;;5011570;28;20087;-79
2021/04/22 12:42:13;;;;;;;7.63;3.92;;;11.00;76.20;;;;;;5007792;28;20026;-78
2021/04/22 12:44:59;;;;;;;10.00;3.63;;;10.90;77.00;;;;;;5013278;28;20421;-79
2021/04/22 12:47:38;;;;;;;;;;;10.90;77.20;;;;;;5015366;28;20038;-79
2021/04/22 12:50:09;;;;;;;7.00;3.88;;;10.80;78.00;;;;;;5028874;28;19996;-80
2021/04/22 12:52:38;;;;;;;7.30;4.30;;;10.70;78.50;;;;;;5029954;28;20026;-79
2021/04/22 12:55:12;;;;;;;7.53;3.63;;;10.60;78.70;;;;;;5010919;28;20036;-80
2021/04/22 12:57:40;;;;;;;5.65;4.07;;;10.60;78.90;;;;;;5010084;28;20022;-79
2021/04/22 13:00:13;;;;;;;10.30;3.60;;;10.60;78.70;;;;;;5013481;28;20068;-81